Time;durP1;ratioP1;P1;durP2;ratioP2;P2;SDS_P1;SDS_P2;PMS_P1;PMS_P2;Temp;Humidity;BMP_temperature;BMP_pressure;BME280_temperature;BME280_humidity;BME280_pressure;Samples;Min_cycle;Max_cycle;Signal;HPM_P1;HPM_P2
2023/01/19 00:01:08;;;;;;;56.53;32.17;;;;;;;;;;5036933;28;20075;-76
2023/01/19 00:03:35;;;;;;;53.97;30.50;;;;;;;;;;5035743;28;20431;-76
2023/01/19 00:06:07;;;;;;;38.15;24.17;;;;;;;;;;5036782;28;20053;-76
2023/01/19 00:08:33;;;;;;;39.83;23.90;;;;;;;;;;5036932;28;20029;-75
2023/01/19 00:10:59;;;;;;;45.13;24.17;;;;;;;;;;5035561;28;20081;-76
2023/01/19 00:13:24;;;;;;;53.58;26.50;;;;;;;;;;5036733;28;20044;-76
2023/01/19 00:15:50;;;;;;;47.28;25.60;;;;;;;;;;5035447;28;20028;-76
2023/01/19 00:18:15;;;;;;;38.10;21.83;;;;;;;;;;5036563;28;20376;-76
2023/01/19 00:20:41;;;;;;;32.50;19.38;;;;;;;;;;5036564;28;20025;-76
2023/01/19 00:23:06;;;;;;;36.50;24.10;;;;;;;;;;5035292;28;20021;-76
2023/01/19 00:25:32;;;;;;;34.67;23.80;;;;;;;;;;5036518;28;20034;-76
2023/01/19 00:27:58;;;;;;;47.75;31.05;;;;;;;;;;5064620;22;20464;-76
2023/01/19 00:30:23;;;;;;;27.88;18.52;;;;;;;;;;5035229;28;20033;-71
2023/01/19 00:32:48;;;;;;;25.60;17.48;;;;;;;;;;5035152;28;20060;-71
2023/01/19 00:35:14;;;;;;;28.55;18.08;;;;;;;;;;5036370;28;20057;-73
2023/01/19 00:37:44;;;;;;;32.15;20.83;;;;;;;;;;5036212;28;20472;-71
2023/01/19 00:40:10;;;;;;;30.60;18.90;;;;;;;;;;5032812;22;20092;-72
2023/01/19 00:42:39;;;;;;;31.40;18.38;;;;;;;;;;5048317;28;20110;-76
2023/01/19 00:45:05;;;;;;;24.38;16.42;;;;;;;;;;5016469;28;20038;-71
2023/01/19 00:47:31;;;;;;;22.27;15.63;;;;;;;;;;5016374;28;20045;-71
2023/01/19 00:49:56;;;;;;;22.40;15.70;;;;;;;;;;5016303;28;20038;-75
2023/01/19 00:52:22;;;;;;;39.80;21.45;;;;;;;;;;5015079;28;20030;-75
2023/01/19 00:54:48;;;;;;;55.60;25.15;;;;;;;;;;5015432;28;20030;-76
2023/01/19 00:57:15;;;;;;;58.63;24.77;;;;;;;;;;4998445;28;20119;-75
2023/01/19 00:59:40;;;;;;;50.17;23.52;;;;;;;;;;5014981;28;20034;-76
2023/01/19 01:02:06;;;;;;;40.72;20.73;;;;;;;;;;5014886;28;20116;-76
2023/01/19 01:04:34;;;;;;;33.45;19.92;;;;;;;;;;5014754;28;20057;-75
2023/01/19 01:07:03;;;;;;;29.45;18.15;;;;;;;;;;5015980;28;20034;-75
2023/01/19 01:09:29;;;;;;;26.15;17.15;;;;;;;;;;5014329;28;20034;-78
2023/01/19 01:11:55;;;;;;;28.95;17.85;;;;;;;;;;5015935;28;20033;-74
2023/01/19 01:14:23;;;;;;;25.50;16.25;;;;;;;;;;5015827;28;20481;-73
2023/01/19 01:16:49;;;;;;;24.27;15.93;;;;;;;;;;5014478;28;20421;-75
2023/01/19 01:19:16;;;;;;;24.38;16.02;;;;;;;;;;5014617;28;20072;-75
2023/01/19 01:21:41;;;;;;;23.88;15.45;;;;;;;;;;5015793;28;20030;-74
2023/01/19 01:24:15;;;;;;;25.73;16.20;;;;;;;;;;5014629;28;20030;-73
2023/01/19 01:26:42;;;;;;;29.02;18.10;;;;;;;;;;4997999;28;20452;-75
2023/01/19 01:29:09;;;;;;;34.42;19.95;;;;;;;;;;5014324;28;20021;-74
2023/01/19 01:31:35;;;;;;;39.40;22.27;;;;;;;;;;5014526;28;20104;-75
2023/01/19 01:34:01;;;;;;;32.13;19.13;;;;;;;;;;5014311;28;20470;-75
2023/01/19 01:36:30;;;;;;;25.67;17.17;;;;;;;;;;4997818;28;20064;-75
2023/01/19 01:38:57;;;;;;;26.25;17.08;;;;;;;;;;5014513;28;20026;-75
2023/01/19 01:41:22;;;;;;;24.23;16.23;;;;;;;;;;5015343;28;20057;-75
2023/01/19 01:43:52;;;;;;;22.25;14.60;;;;;;;;;;5013944;28;20034;-76
2023/01/19 01:46:19;;;;;;;21.83;14.90;;;;;;;;;;5047224;28;20036;-76
2023/01/19 01:48:48;;;;;;;23.42;15.60;;;;;;;;;;5013970;28;20505;-76
2023/01/19 01:51:25;;;;;;;32.00;19.27;;;;;;;;;;5015196;28;20436;-74
2023/01/19 01:53:55;;;;;;;39.55;23.25;;;;;;;;;;5014296;28;20041;-78
2023/01/19 01:56:26;;;;;;;42.13;24.48;;;;;;;;;;5015030;28;20037;-78
2023/01/19 01:58:52;;;;;;;38.20;23.25;;;;;;;;;;5013741;28;20030;-78
2023/01/19 02:04:03;;;;;;;32.72;19.90;;;;;;;;;;5014952;28;20117;-73
2023/01/19 02:06:29;;;;;;;29.48;19.02;;;;;;;;;;5013636;28;20080;-73
2023/01/19 02:14:26;;;;;;;22.27;13.38;;;;;;;;;;5014736;28;20110;-73
2023/01/19 02:16:53;;;;;;;22.20;14.07;;;;;;;;;;5013529;28;20449;-73
2023/01/19 02:19:26;;;;;;;21.73;14.10;;;;;;;;;;5014703;28;20030;-74
2023/01/19 02:21:55;;;;;;;22.10;14.15;;;;;;;;;;5013896;28;20022;-76
2023/01/19 02:24:21;;;;;;;21.90;14.48;;;;;;;;;;5014712;28;20026;-74
2023/01/19 02:26:47;;;;;;;24.05;15.95;;;;;;;;;;5013110;28;20539;-75
2023/01/19 02:29:15;;;;;;;23.52;15.77;;;;;;;;;;5013321;28;20022;-76
2023/01/19 02:31:41;;;;;;;24.85;17.00;;;;;;;;;;4996829;28;20038;-76
2023/01/19 02:34:10;;;;;;;24.17;17.23;;;;;;;;;;5014395;28;20033;-74
2023/01/19 02:36:39;;;;;;;24.73;17.50;;;;;;;;;;5012916;28;20037;-76
2023/01/19 02:39:04;;;;;;;25.77;17.02;;;;;;;;;;5014245;28;20283;-76
2023/01/19 02:41:33;;;;;;;24.52;17.15;;;;;;;;;;5014253;28;20034;-75
2023/01/19 02:44:00;;;;;;;24.27;17.00;;;;;;;;;;5014475;28;20030;-76
2023/01/19 02:46:25;;;;;;;22.42;15.50;;;;;;;;;;5012981;28;20022;-76
2023/01/19 02:48:51;;;;;;;20.90;15.30;;;;;;;;;;4996639;28;20466;-73
2023/01/19 02:51:20;;;;;;;23.95;16.73;;;;;;;;;;5012737;28;20038;-73
2023/01/19 02:53:48;;;;;;;24.65;16.33;;;;;;;;;;5012732;28;20030;-76
2023/01/19 02:56:28;;;;;;;25.85;17.38;;;;;;;;;;5013975;28;20049;-75
2023/01/19 02:58:56;;;;;;;24.47;17.40;;;;;;;;;;5012696;28;20076;-76
2023/01/19 03:01:27;;;;;;;26.30;18.02;;;;;;;;;;5012875;28;20041;-76
2023/01/19 03:03:55;;;;;;;26.67;17.92;;;;;;;;;;5014015;28;20026;-72
2023/01/19 03:06:35;;;;;;;28.27;17.83;;;;;;;;;;5012617;28;20034;-77
2023/01/19 03:09:05;;;;;;;26.17;17.63;;;;;;;;;;5014195;28;20042;-76
2023/01/19 03:11:37;;;;;;;28.08;19.52;;;;;;;;;;5013794;28;20030;-76
2023/01/19 03:14:02;;;;;;;27.92;19.15;;;;;;;;;;5013812;28;20068;-76
2023/01/19 03:16:47;;;;;;;26.92;18.85;;;;;;;;;;5012335;28;20061;-76
2023/01/19 03:19:19;;;;;;;27.27;18.10;;;;;;;;;;5017774;23;20089;-71
2023/01/19 03:21:45;;;;;;;31.30;19.25;;;;;;;;;;5012477;28;20034;-72
2023/01/19 03:24:12;;;;;;;26.40;17.42;;;;;;;;;;5013937;28;20481;-73
2023/01/19 03:26:40;;;;;;;25.48;17.88;;;;;;;;;;5012333;28;20030;-71
2023/01/19 03:29:08;;;;;;;25.13;16.90;;;;;;;;;;5012403;28;20042;-71
2023/01/19 03:31:33;;;;;;;27.35;17.77;;;;;;;;;;5013387;28;20029;-71
2023/01/19 03:34:01;;;;;;;25.77;16.90;;;;;;;;;;5012392;28;20394;-73
2023/01/19 03:36:32;;;;;;;23.45;15.93;;;;;;;;;;5013336;28;20037;-72
2023/01/19 03:38:58;;;;;;;22.30;15.68;;;;;;;;;;5012223;28;20037;-73
2023/01/19 03:41:24;;;;;;;18.73;13.52;;;;;;;;;;5012182;28;20022;-73
2023/01/19 03:43:54;;;;;;;17.25;12.60;;;;;;;;;;5013466;28;20381;-73
2023/01/19 03:46:19;;;;;;;17.98;12.07;;;;;;;;;;5013527;28;20474;-71
2023/01/19 03:48:46;;;;;;;19.30;12.50;;;;;;;;;;5013315;28;20496;-72
2023/01/19 03:51:13;;;;;;;19.08;12.95;;;;;;;;;;5013325;28;20030;-73
2023/01/19 03:53:38;;;;;;;20.80;14.38;;;;;;;;;;5012060;28;20498;-71
2023/01/19 03:56:04;;;;;;;19.08;13.75;;;;;;;;;;5013234;28;20057;-72
2023/01/19 03:58:30;;;;;;;22.98;14.85;;;;;;;;;;5012092;28;20076;-70
2023/01/19 04:00:55;;;;;;;20.63;14.98;;;;;;;;;;5013286;28;20062;-71
2023/01/19 04:03:20;;;;;;;22.60;15.02;;;;;;;;;;5013781;28;20021;-70
2023/01/19 04:05:46;;;;;;;23.38;16.55;;;;;;;;;;5011995;28;20139;-72
2023/01/19 04:08:11;;;;;;;26.05;17.38;;;;;;;;;;5012124;28;20036;-71
2023/01/19 04:10:36;;;;;;;22.95;17.30;;;;;;;;;;5013150;28;20022;-71
2023/01/19 04:13:02;;;;;;;29.80;16.95;;;;;;;;;;5013208;28;20436;-71
2023/01/19 04:15:28;;;;;;;26.33;17.73;;;;;;;;;;5013098;28;20030;-71
2023/01/19 04:17:53;;;;;;;24.58;16.33;;;;;;;;;;5012985;28;20022;-71
2023/01/19 04:20:20;;;;;;;27.63;16.55;;;;;;;;;;5012954;28;20478;-72
2023/01/19 04:22:46;;;;;;;29.88;19.02;;;;;;;;;;5013081;28;20355;-70
2023/01/19 04:25:11;;;;;;;26.60;16.17;;;;;;;;;;5011952;28;20037;-71
2023/01/19 04:27:36;;;;;;;24.83;13.85;;;;;;;;;;5013013;28;20104;-72
2023/01/19 04:30:02;;;;;;;22.95;14.52;;;;;;;;;;5012045;28;20431;-71
2023/01/19 04:32:29;;;;;;;24.17;15.13;;;;;;;;;;5013261;28;20034;-70
2023/01/19 04:34:54;;;;;;;21.92;15.00;;;;;;;;;;5013406;28;20053;-70
2023/01/19 04:37:19;;;;;;;21.45;13.85;;;;;;;;;;5011971;28;20482;-71
2023/01/19 04:39:45;;;;;;;22.80;14.82;;;;;;;;;;5012990;28;20381;-70
2023/01/19 04:42:10;;;;;;;33.92;19.17;;;;;;;;;;5013209;28;20030;-70
2023/01/19 04:44:36;;;;;;;84.55;39.42;;;;;;;;;;5015768;28;20414;-70
2023/01/19 04:47:02;;;;;;;77.18;37.65;;;;;;;;;;5017044;28;20096;-71
2023/01/19 04:49:27;;;;;;;81.03;38.45;;;;;;;;;;5016732;28;20473;-71
2023/01/19 04:51:52;;;;;;;44.10;24.40;;;;;;;;;;5015655;28;20029;-70
2023/01/19 04:54:18;;;;;;;38.85;21.70;;;;;;;;;;5017132;28;20472;-70
2023/01/19 04:56:43;;;;;;;40.03;22.33;;;;;;;;;;5016927;28;20116;-71
2023/01/19 04:59:09;;;;;;;38.40;22.10;;;;;;;;;;5016728;28;20076;-71
2023/01/19 05:01:34;;;;;;;26.95;17.48;;;;;;;;;;5015718;28;20374;-71
2023/01/19 05:04:00;;;;;;;20.33;14.50;;;;;;;;;;5015662;28;20469;-71
2023/01/19 05:06:26;;;;;;;23.77;14.65;;;;;;;;;;5016773;28;20117;-71
2023/01/19 05:08:52;;;;;;;19.60;14.95;;;;;;;;;;5015446;28;20072;-72
2023/01/19 05:11:17;;;;;;;19.73;13.20;;;;;;;;;;5017105;28;20026;-71
2023/01/19 05:13:43;;;;;;;20.17;12.65;;;;;;;;;;5015700;28;20473;-70
2023/01/19 05:16:08;;;;;;;23.65;16.05;;;;;;;;;;5016608;28;20076;-71
2023/01/19 05:18:35;;;;;;;19.92;13.68;;;;;;;;;;5016161;28;20030;-72
2023/01/19 05:21:02;;;;;;;18.23;13.95;;;;;;;;;;5015166;28;20034;-72
2023/01/19 05:23:30;;;;;;;20.77;14.50;;;;;;;;;;5014993;28;20111;-72
2023/01/19 05:25:59;;;;;;;26.98;17.80;;;;;;;;;;5014803;28;20073;-71
2023/01/19 05:28:26;;;;;;;36.08;21.25;;;;;;;;;;5014711;28;20049;-72
2023/01/19 05:30:51;;;;;;;37.80;22.05;;;;;;;;;;5014685;28;20069;-72
2023/01/19 05:33:16;;;;;;;41.63;24.63;;;;;;;;;;4998306;28;20034;-72
2023/01/19 05:35:42;;;;;;;42.40;22.17;;;;;;;;;;5015403;28;20034;-70
2023/01/19 05:38:08;;;;;;;40.22;21.42;;;;;;;;;;5015545;28;20058;-69
2023/01/19 05:40:33;;;;;;;44.33;25.83;;;;;;;;;;5015096;28;20114;-67
2023/01/19 05:43:00;;;;;;;30.80;18.48;;;;;;;;;;5015553;28;20101;-68
2023/01/19 05:45:27;;;;;;;24.92;17.10;;;;;;;;;;5014269;28;20030;-67
2023/01/19 05:47:52;;;;;;;21.33;14.55;;;;;;;;;;5015101;28;20482;-67
2023/01/19 05:50:18;;;;;;;24.17;16.08;;;;;;;;;;5015613;28;20060;-68
2023/01/19 05:52:44;;;;;;;20.67;14.38;;;;;;;;;;5015337;28;20478;-68
2023/01/19 05:55:10;;;;;;;18.75;13.23;;;;;;;;;;5013099;28;20025;-68
2023/01/19 05:57:35;;;;;;;25.33;16.23;;;;;;;;;;5012199;28;20088;-68
2023/01/19 06:00:00;;;;;;;27.20;17.23;;;;;;;;;;5012741;28;20033;-69
2023/01/19 06:02:28;;;;;;;21.90;15.05;;;;;;;;;;5012553;28;20041;-68
2023/01/19 06:04:54;;;;;;;22.67;14.88;;;;;;;;;;5014914;28;20105;-70
2023/01/19 06:07:19;;;;;;;22.52;14.13;;;;;;;;;;5013727;28;20076;-69
2023/01/19 06:09:44;;;;;;;23.85;15.48;;;;;;;;;;5014596;28;20108;-70
2023/01/19 06:12:10;;;;;;;25.13;16.17;;;;;;;;;;5015057;28;20385;-70
2023/01/19 06:14:36;;;;;;;18.65;13.32;;;;;;;;;;5015694;28;20034;-69
2023/01/19 06:17:02;;;;;;;19.77;12.88;;;;;;;;;;5014323;28;20033;-70
2023/01/19 06:19:28;;;;;;;19.70;12.27;;;;;;;;;;5011354;28;20042;-70
2023/01/19 06:21:55;;;;;;;21.00;14.18;;;;;;;;;;5011094;28;20678;-70
2023/01/19 06:24:22;;;;;;;24.73;16.77;;;;;;;;;;5010220;28;20470;-69
2023/01/19 06:26:47;;;;;;;20.83;16.50;;;;;;;;;;5012318;28;20103;-71
2023/01/19 06:29:13;;;;;;;22.80;15.63;;;;;;;;;;5014709;28;20490;-71
2023/01/19 06:31:39;;;;;;;20.35;13.55;;;;;;;;;;5013621;28;20034;-70
2023/01/19 06:34:05;;;;;;;18.60;12.60;;;;;;;;;;5013867;28;20037;-70
2023/01/19 06:36:31;;;;;;;16.83;11.75;;;;;;;;;;5014911;28;20450;-70
2023/01/19 06:38:58;;;;;;;14.25;9.40;;;;;;;;;;5014006;28;20469;-70
2023/01/19 06:41:25;;;;;;;21.15;14.25;;;;;;;;;;5013446;28;20014;-71
2023/01/19 06:43:51;;;;;;;21.30;14.20;;;;;;;;;;5013834;28;20405;-71
2023/01/19 06:46:17;;;;;;;20.10;14.10;;;;;;;;;;5012270;28;20116;-71
2023/01/19 06:48:43;;;;;;;21.30;14.13;;;;;;;;;;5013749;28;20025;-70
2023/01/19 06:51:08;;;;;;;20.02;13.63;;;;;;;;;;5011992;28;20013;-71
2023/01/19 06:53:34;;;;;;;22.90;15.15;;;;;;;;;;5012334;28;20113;-70
2023/01/19 06:56:02;;;;;;;27.20;18.67;;;;;;;;;;5012700;28;20453;-70
2023/01/19 06:58:28;;;;;;;33.95;20.25;;;;;;;;;;5011858;28;20105;-71
2023/01/19 07:00:54;;;;;;;32.05;21.75;;;;;;;;;;5013852;28;20105;-70
2023/01/19 07:03:21;;;;;;;33.40;21.13;;;;;;;;;;5012926;28;20026;-71
2023/01/19 07:05:50;;;;;;;33.38;21.83;;;;;;;;;;5012886;28;20033;-71
2023/01/19 07:08:15;;;;;;;34.95;22.63;;;;;;;;;;4996167;28;20036;-71
2023/01/19 07:10:41;;;;;;;37.53;22.85;;;;;;;;;;5013034;28;20030;-70
2023/01/19 07:13:07;;;;;;;39.65;24.48;;;;;;;;;;5013124;28;20041;-70
2023/01/19 07:15:33;;;;;;;37.83;22.58;;;;;;;;;;5014344;28;20037;-69
2023/01/19 07:18:04;;;;;;;33.70;21.48;;;;;;;;;;5014121;28;20041;-70
2023/01/19 07:20:32;;;;;;;38.30;25.70;;;;;;;;;;5013942;28;20509;-70
2023/01/19 07:22:58;;;;;;;55.10;34.75;;;;;;;;;;5012702;28;20026;-70
2023/01/19 07:25:24;;;;;;;59.72;38.80;;;;;;;;;;4996700;28;20030;-70
2023/01/19 07:27:49;;;;;;;58.65;37.70;;;;;;;;;;5014005;28;20026;-69
2023/01/19 07:30:16;;;;;;;56.40;37.78;;;;;;;;;;5013886;28;20017;-70
2023/01/19 07:32:43;;;;;;;47.78;32.30;;;;;;;;;;5012561;28;20069;-70
2023/01/19 07:35:09;;;;;;;130.73;71.63;;;;;;;;;;5012919;28;20109;-70
2023/01/19 07:37:36;;;;;;;53.33;31.67;;;;;;;;;;5013758;28;20121;-70
2023/01/19 07:40:02;;;;;;;52.47;31.00;;;;;;;;;;5012601;28;20032;-70
2023/01/19 07:42:31;;;;;;;39.63;24.10;;;;;;;;;;5014068;28;20105;-67
2023/01/19 07:44:57;;;;;;;125.25;83.43;;;;;;;;;;4996642;28;20470;-68
2023/01/19 07:47:22;;;;;;;247.10;207.15;;;;;;;;;;5012421;28;20065;-67
2023/01/19 07:49:48;;;;;;;103.07;83.13;;;;;;;;;;5012765;28;20065;-68
2023/01/19 07:52:15;;;;;;;116.28;89.68;;;;;;;;;;5012387;28;20050;-67
2023/01/19 07:54:40;;;;;;;102.13;77.15;;;;;;;;;;5012456;28;20025;-68
2023/01/19 07:57:06;;;;;;;29.02;19.70;;;;;;;;;;5012335;28;20409;-67
2023/01/19 07:59:33;;;;;;;19.90;15.10;;;;;;;;;;5012849;28;20037;-67
2023/01/19 08:02:01;;;;;;;18.77;12.60;;;;;;;;;;5012343;28;20034;-68
2023/01/19 08:04:27;;;;;;;16.40;11.30;;;;;;;;;;4996022;28;20030;-68
2023/01/19 08:06:57;;;;;;;16.48;10.85;;;;;;;;;;5013590;28;20033;-69
2023/01/19 08:09:23;;;;;;;12.70;9.77;;;;;;;;;;5012066;28;20026;-69
2023/01/19 08:11:49;;;;;;;11.45;9.27;;;;;;;;;;4995947;28;20069;-69
2023/01/19 08:14:15;;;;;;;12.80;9.60;;;;;;;;;;5013457;28;20482;-69
2023/01/19 08:16:51;;;;;;;15.73;11.68;;;;;;;;;;5016435;23;20037;-69
2023/01/19 08:19:18;;;;;;;32.55;20.55;;;;;;;;;;5060026;22;20077;-69
2023/01/19 08:21:45;;;;;;;39.85;27.48;;;;;;;;;;5037053;28;20033;-69
2023/01/19 08:24:17;;;;;;;48.38;31.17;;;;;;;;;;5035839;28;20476;-70
2023/01/19 08:26:42;;;;;;;;;;;;;;;;;;5036186;28;20033;-70
2023/01/19 08:29:07;;;;;;;38.87;28.77;;;;;;;;;;5037510;28;19913;-67
2023/01/19 08:31:34;;;;;;;37.83;28.10;;;;;;;;;;5047461;23;20331;-66
2023/01/19 08:34:00;;;;;;;38.45;28.20;;;;;;;;;;4999956;28;20091;-66
2023/01/19 08:36:26;;;;;;;37.00;27.73;;;;;;;;;;5015682;28;20551;-67
2023/01/19 08:38:52;;;;;;;38.28;28.83;;;;;;;;;;5015991;28;20022;-66
2023/01/19 08:41:19;;;;;;;39.00;28.30;;;;;;;;;;5015767;28;20021;-67
2023/01/19 08:43:45;;;;;;;37.78;26.75;;;;;;;;;;4999561;28;20025;-67
2023/01/19 08:46:16;;;;;;;35.38;26.42;;;;;;;;;;5016454;28;20057;-66
2023/01/19 08:48:43;;;;;;;36.13;26.50;;;;;;;;;;4999894;28;20030;-66
2023/01/19 08:51:11;;;;;;;42.15;27.27;;;;;;;;;;5015552;28;20385;-69
2023/01/19 08:53:37;;;;;;;34.55;25.38;;;;;;;;;;4998876;28;20040;-69
2023/01/19 08:56:06;;;;;;;33.15;24.15;;;;;;;;;;5015303;28;20481;-69
2023/01/19 08:58:32;;;;;;;44.58;29.58;;;;;;;;;;5015429;28;20028;-69
2023/01/19 09:00:58;;;;;;;44.72;30.75;;;;;;;;;;4999475;28;20120;-69
2023/01/19 09:03:23;;;;;;;51.72;33.35;;;;;;;;;;5016509;28;20496;-69
2023/01/19 09:05:49;;;;;;;54.35;34.72;;;;;;;;;;5015102;28;20481;-69
2023/01/19 09:08:15;;;;;;;57.70;35.15;;;;;;;;;;4998711;28;20084;-69
2023/01/19 09:10:45;;;;;;;49.25;31.45;;;;;;;;;;5015373;28;20503;-69
2023/01/19 09:13:12;;;;;;;47.78;31.10;;;;;;;;;;5015936;28;20037;-69
2023/01/19 09:15:38;;;;;;;43.50;27.67;;;;;;;;;;5015271;28;20037;-69
2023/01/19 09:18:04;;;;;;;30.52;20.88;;;;;;;;;;5014968;28;20030;-69
2023/01/19 09:20:31;;;;;;;33.63;24.20;;;;;;;;;;5014911;28;20026;-69
2023/01/19 09:22:57;;;;;;;76.18;37.20;;;;;;;;;;5016131;28;20032;-69
2023/01/19 09:25:22;;;;;;;63.00;33.45;;;;;;;;;;5016052;28;20021;-66
2023/01/19 09:27:47;;;;;;;65.53;37.75;;;;;;;;;;5014818;28;20030;-66
2023/01/19 09:30:15;;;;;;;32.63;22.88;;;;;;;;;;5015678;28;20526;-66
2023/01/19 09:32:41;;;;;;;34.65;22.88;;;;;;;;;;5015691;28;20148;-65
2023/01/19 09:35:07;;;;;;;31.42;19.83;;;;;;;;;;5014971;28;20038;-66
2023/01/19 09:37:32;;;;;;;25.17;17.90;;;;;;;;;;5014542;28;20034;-66
2023/01/19 09:39:57;;;;;;;30.92;21.38;;;;;;;;;;5016119;28;20034;-66
2023/01/19 09:42:50;;;;;;;24.13;17.55;;;;;;;;;;5015758;28;20100;-66
2023/01/19 09:45:24;;;;;;;24.92;16.58;;;;;;;;;;5000256;28;20042;-65
2023/01/19 09:47:50;;;;;;;23.25;16.20;;;;;;;;;;5015939;28;20084;-65
2023/01/19 09:50:20;;;;;;;26.83;18.48;;;;;;;;;;5022057;23;20069;-68
2023/01/19 09:52:49;;;;;;;31.75;22.15;;;;;;;;;;5058645;22;20068;-66
2023/01/19 09:55:19;;;;;;;33.40;21.17;;;;;;;;;;5014308;28;20022;-65
2023/01/19 09:57:46;;;;;;;65.05;35.53;;;;;;;;;;5015358;28;20037;-65
2023/01/19 10:00:14;;;;;;;63.00;35.08;;;;;;;;;;5014118;28;20485;-66
2023/01/19 10:03:03;;;;;;;39.00;24.13;;;;;;;;;;5015395;28;20105;-65
2023/01/19 10:05:30;;;;;;;42.50;25.15;;;;;;;;;;5015161;28;20044;-65
2023/01/19 10:08:07;;;;;;;90.93;46.22;;;;;;;;;;5015404;28;20117;-65
2023/01/19 10:10:33;;;;;;;91.53;46.05;;;;;;;;;;5013917;28;20129;-65
2023/01/19 10:12:58;;;;;;;74.72;38.40;;;;;;;;;;5015212;28;20041;-65
2023/01/19 10:15:29;;;;;;;94.63;40.25;;;;;;;;;;5015208;28;20038;-66
2023/01/19 10:18:12;;;;;;;55.05;33.03;;;;;;;;;;5013767;28;20045;-65
2023/01/19 10:20:43;;;;;;;33.75;21.02;;;;;;;;;;4997403;28;20025;-66
2023/01/19 10:23:36;;;;;;;37.63;25.20;;;;;;;;;;5015081;28;20041;-65
2023/01/19 10:26:07;;;;;;;47.28;34.00;;;;;;;;;;4991457;28;20085;-66
2023/01/19 10:28:32;;;;;;;525.72;346.52;;;;;;;;;;5013577;28;20030;-66
2023/01/19 10:30:58;;;;;;;97.68;58.65;;;;;;;;;;5015058;28;20029;-65
2023/01/19 10:33:23;;;;;;;334.48;298.17;;;;;;;;;;5014768;28;20403;-66
2023/01/19 10:35:49;;;;;;;151.13;129.38;;;;;;;;;;5014727;28;20060;-65
2023/01/19 10:38:18;;;;;;;119.70;102.30;;;;;;;;;;5014761;28;20112;-65
2023/01/19 10:40:49;;;;;;;256.77;230.27;;;;;;;;;;5013290;28;20026;-66
2023/01/19 10:43:33;;;;;;;118.45;102.20;;;;;;;;;;5014200;28;20026;-66
2023/01/19 10:45:58;;;;;;;41.95;29.95;;;;;;;;;;5013856;28;20084;-66
2023/01/19 10:48:23;;;;;;;60.80;41.35;;;;;;;;;;5014508;28;20026;-66
2023/01/19 10:51:01;;;;;;;62.50;47.50;;;;;;;;;;5022164;23;20428;-68
2023/01/19 10:53:28;;;;;;;44.85;36.10;;;;;;;;;;4997161;28;20394;-66
2023/01/19 10:56:09;;;;;;;38.38;29.27;;;;;;;;;;5014772;28;20030;-67
2023/01/19 10:58:35;;;;;;;37.10;27.95;;;;;;;;;;5014800;28;20057;-66
2023/01/19 11:03:55;;;;;;;50.75;42.58;;;;;;;;;;5050442;22;20505;-66
2023/01/19 11:06:24;;;;;;;34.83;25.17;;;;;;;;;;5046222;23;20069;-66
2023/01/19 11:08:50;;;;;;;40.83;25.75;;;;;;;;;;5016268;28;20026;-66
2023/01/19 11:11:16;;;;;;;38.92;24.48;;;;;;;;;;5032795;28;20034;-66
2023/01/19 11:13:42;;;;;;;32.17;21.45;;;;;;;;;;5033904;28;20108;-65
2023/01/19 11:16:22;;;;;;;115.63;85.45;;;;;;;;;;5032883;28;20487;-66
2023/01/19 11:18:50;;;;;;;451.30;381.90;;;;;;;;;;5034097;28;20029;-66
2023/01/19 11:21:16;;;;;;;102.47;88.90;;;;;;;;;;5034063;28;20018;-66
2023/01/19 11:23:44;;;;;;;125.20;111.82;;;;;;;;;;5034032;28;20031;-66
2023/01/19 11:26:24;;;;;;;163.95;147.02;;;;;;;;;;5034002;28;20029;-66
2023/01/19 11:28:50;;;;;;;188.23;169.65;;;;;;;;;;5033695;28;20033;-66
2023/01/19 11:31:30;;;;;;;61.92;47.25;;;;;;;;;;5033676;28;20022;-66
2023/01/19 11:33:59;;;;;;;37.85;27.15;;;;;;;;;;5032391;28;20022;-66
2023/01/19 11:36:26;;;;;;;80.78;72.65;;;;;;;;;;5032928;28;20038;-65
2023/01/19 11:38:53;;;;;;;57.85;43.35;;;;;;;;;;5033551;28;20040;-66
2023/01/19 11:41:20;;;;;;;47.72;33.95;;;;;;;;;;5033866;28;20432;-66
2023/01/19 11:43:47;;;;;;;31.77;23.05;;;;;;;;;;5033563;28;20013;-65
2023/01/19 11:46:14;;;;;;;35.28;24.27;;;;;;;;;;5032357;28;20091;-66
2023/01/19 11:48:45;;;;;;;36.90;23.33;;;;;;;;;;5033789;28;20095;-66
2023/01/19 11:51:16;;;;;;;32.95;21.70;;;;;;;;;;5032874;28;20048;-65
2023/01/19 11:53:44;;;;;;;37.33;24.92;;;;;;;;;;5067912;28;20030;-66
2023/01/19 11:56:11;;;;;;;31.85;22.08;;;;;;;;;;5037758;28;20083;-65
2023/01/19 11:58:38;;;;;;;32.15;20.98;;;;;;;;;;5037779;28;20481;-66
2023/01/19 12:01:06;;;;;;;29.52;20.40;;;;;;;;;;5037426;28;20026;-65
2023/01/19 12:03:34;;;;;;;25.83;18.35;;;;;;;;;;5037707;28;20116;-65
2023/01/19 12:06:03;;;;;;;35.60;21.48;;;;;;;;;;5054095;22;20119;-66
2023/01/19 12:08:33;;;;;;;42.00;24.03;;;;;;;;;;5049567;22;20056;-65
2023/01/19 12:10:58;;;;;;;48.08;25.20;;;;;;;;;;5037575;28;20108;-65
2023/01/19 12:13:25;;;;;;;26.98;17.77;;;;;;;;;;5037510;28;20061;-65
2023/01/19 12:16:10;;;;;;;34.60;21.73;;;;;;;;;;5037196;28;20040;-65
2023/01/19 12:18:40;;;;;;;26.58;18.77;;;;;;;;;;5035805;28;20503;-65
2023/01/19 12:21:06;;;;;;;26.65;18.80;;;;;;;;;;5037404;28;20108;-65
2023/01/19 12:23:31;;;;;;;33.03;21.33;;;;;;;;;;5037336;28;20535;-65
2023/01/19 12:25:59;;;;;;;29.33;20.13;;;;;;;;;;5037018;28;20037;-65
2023/01/19 12:28:30;;;;;;;27.17;18.92;;;;;;;;;;5037216;28;20018;-65
2023/01/19 12:30:56;;;;;;;38.38;23.52;;;;;;;;;;5068906;28;20120;-65
2023/01/19 12:33:24;;;;;;;30.10;20.45;;;;;;;;;;5068912;28;20362;-65
2023/01/19 12:35:57;;;;;;;19.58;14.50;;;;;;;;;;5037109;28;20033;-65
2023/01/19 12:38:31;;;;;;;25.33;15.85;;;;;;;;;;5068753;28;20037;-65
2023/01/19 12:41:15;;;;;;;36.17;20.58;;;;;;;;;;5069321;28;20041;-65
2023/01/19 12:43:41;;;;;;;26.63;17.63;;;;;;;;;;5069414;28;20102;-65
2023/01/19 12:46:26;;;;;;;26.40;17.25;;;;;;;;;;5036878;28;20435;-65
2023/01/19 12:48:52;;;;;;;25.40;16.15;;;;;;;;;;5036291;28;20045;-65
2023/01/19 12:51:25;;;;;;;18.70;13.45;;;;;;;;;;5037063;28;20026;-65
2023/01/19 12:53:52;;;;;;;21.15;13.68;;;;;;;;;;5068590;28;20046;-65
2023/01/19 12:56:18;;;;;;;20.98;14.07;;;;;;;;;;5036655;28;20091;-65
2023/01/19 12:58:48;;;;;;;18.90;12.88;;;;;;;;;;5036395;28;20029;-65
2023/01/19 13:01:15;;;;;;;22.48;14.90;;;;;;;;;;5036365;28;20186;-65
2023/01/19 13:03:43;;;;;;;20.55;13.88;;;;;;;;;;5036294;28;20022;-65
2023/01/19 13:06:08;;;;;;;43.17;31.88;;;;;;;;;;5035788;28;20469;-65
2023/01/19 13:08:52;;;;;;;22.85;15.60;;;;;;;;;;5036073;28;20050;-65
2023/01/19 13:11:18;;;;;;;21.02;12.82;;;;;;;;;;5036394;28;20034;-65
2023/01/19 13:13:46;;;;;;;16.48;12.40;;;;;;;;;;5068166;28;20033;-65
2023/01/19 13:16:18;;;;;;;17.25;12.48;;;;;;;;;;5036295;28;20029;-65
2023/01/19 13:18:47;;;;;;;19.48;13.23;;;;;;;;;;5068189;28;20034;-65
2023/01/19 13:21:13;;;;;;;18.75;13.13;;;;;;;;;;5036259;28;20083;-65
2023/01/19 13:23:51;;;;;;;18.35;12.40;;;;;;;;;;5068006;28;20129;-68
2023/01/19 13:26:27;;;;;;;19.70;13.30;;;;;;;;;;5036421;28;20111;-68
2023/01/19 13:28:55;;;;;;;17.25;12.23;;;;;;;;;;5068545;28;20025;-67
2023/01/19 13:31:21;;;;;;;18.25;12.90;;;;;;;;;;5051364;28;20033;-66
2023/01/19 13:33:51;;;;;;;19.98;14.15;;;;;;;;;;5047444;22;20060;-68
2023/01/19 13:36:22;;;;;;;17.95;13.13;;;;;;;;;;5035613;28;20018;-67
2023/01/19 13:38:49;;;;;;;19.50;13.30;;;;;;;;;;5068159;28;20034;-68
2023/01/19 13:41:17;;;;;;;17.70;13.35;;;;;;;;;;5035625;28;20022;-67
2023/01/19 13:43:42;;;;;;;19.55;12.80;;;;;;;;;;5035884;28;20029;-67
2023/01/19 13:46:09;;;;;;;17.00;12.77;;;;;;;;;;5035524;28;20025;-68
2023/01/19 13:48:35;;;;;;;23.73;15.15;;;;;;;;;;5035758;28;20038;-67
2023/01/19 13:51:04;;;;;;;30.45;17.17;;;;;;;;;;5035678;28;20037;-67
2023/01/19 13:53:31;;;;;;;24.58;15.15;;;;;;;;;;5067397;28;20087;-68
2023/01/19 13:56:07;;;;;;;24.08;15.02;;;;;;;;;;5067348;28;20037;-67
2023/01/19 13:58:32;;;;;;;23.58;15.43;;;;;;;;;;5035462;28;20029;-68
2023/01/19 14:00:58;;;;;;;20.88;14.93;;;;;;;;;;5050395;28;20029;-67
2023/01/19 14:03:24;;;;;;;21.17;13.27;;;;;;;;;;5067025;28;20040;-65
2023/01/19 14:05:51;;;;;;;19.52;13.65;;;;;;;;;;5050241;28;20488;-67
2023/01/19 14:08:17;;;;;;;20.15;13.40;;;;;;;;;;5035161;28;20417;-66
2023/01/19 14:10:46;;;;;;;21.70;15.38;;;;;;;;;;5034336;28;20080;-66
2023/01/19 14:13:11;;;;;;;24.05;15.32;;;;;;;;;;5066196;28;20024;-66
2023/01/19 14:15:37;;;;;;;24.90;16.05;;;;;;;;;;5033778;28;20029;-66
2023/01/19 14:18:08;;;;;;;34.42;17.98;;;;;;;;;;5065230;28;20435;-66
2023/01/19 14:20:35;;;;;;;24.95;16.02;;;;;;;;;;5033763;28;20053;-67
2023/01/19 14:23:01;;;;;;;36.92;19.73;;;;;;;;;;5033958;28;20083;-67
2023/01/19 14:25:27;;;;;;;45.75;22.77;;;;;;;;;;5032628;28;20576;-69
2023/01/19 14:28:11;;;;;;;42.53;22.35;;;;;;;;;;5033890;28;20029;-67
2023/01/19 14:30:37;;;;;;;46.65;24.63;;;;;;;;;;5034135;28;20029;-67